Time;durP1;ratioP1;P1;durP2;ratioP2;P2;SDS_P1;SDS_P2;PMS_P1;PMS_P2;Temp;Humidity;BMP_temperature;BMP_pressure;BME280_temperature;BME280_humidity;BME280_pressure;Samples;Min_cycle;Max_cycle;Signal;HPM_P1;HPM_P2
2021/01/21 00:04:25;;;;;;;3.37;1.10;;;10.80;99.90;;;;;;6727604;88;20970;-73
2021/01/21 00:14:26;;;;;;;5.87;0.90;;;10.70;99.90;;;;;;6730739;88;20207;-73
2021/01/21 00:24:26;;;;;;;2.33;0.62;;;10.70;99.90;;;;;;6725839;88;20178;-73
2021/01/21 00:34:27;;;;;;;4.32;0.90;;;10.60;99.90;;;;;;6728256;88;20189;-72
2021/01/21 00:44:27;;;;;;;1.87;0.75;;;10.60;99.90;;;;;;6730801;88;20232;-73
2021/01/21 00:54:28;;;;;;;2.17;0.75;;;10.50;99.90;;;;;;6731844;88;20213;-72
2021/01/21 01:04:28;;;;;;;2.05;0.73;;;10.70;99.90;;;;;;6736064;88;20193;-72
2021/01/21 01:14:29;;;;;;;2.55;0.70;;;10.90;99.90;;;;;;6730228;88;20267;-72
2021/01/21 01:24:29;;;;;;;2.00;0.80;;;10.70;99.90;;;;;;6741031;88;20206;-72
2021/01/21 01:34:30;;;;;;;1.87;0.80;;;10.70;99.90;;;;;;6738940;88;20683;-73
2021/01/21 01:44:30;;;;;;;1.37;0.57;;;10.80;99.90;;;;;;6739276;88;20203;-73
2021/01/21 01:54:31;;;;;;;2.25;0.85;;;10.90;99.90;;;;;;6729863;88;20186;-73
2021/01/21 02:04:31;;;;;;;1.98;0.80;;;11.40;99.90;;;;;;6729950;88;20329;-73
2021/01/21 02:14:55;;;;;;;2.58;0.60;;;11.20;99.90;;;;;;6732535;88;20307;-72
2021/01/21 02:25:16;;;;;;;1.95;0.90;;;11.70;99.90;;;;;;6727553;88;20202;-73
2021/01/21 02:35:18;;;;;;;2.87;0.98;;;11.80;99.90;;;;;;6731599;88;20780;-73
2021/01/21 02:45:19;;;;;;;2.75;0.60;;;11.80;99.90;;;;;;6728192;88;20666;-73
2021/01/21 03:05:24;;;;;;;2.17;0.80;;;12.10;99.90;;;;;;6758614;87;20223;-75
2021/01/21 03:15:25;;;;;;;3.03;0.52;;;12.00;99.90;;;;;;6739285;88;20368;-75
2021/01/21 03:25:26;;;;;;;2.15;0.70;;;12.00;99.90;;;;;;6738480;88;20194;-75
2021/01/21 03:35:26;;;;;;;2.08;0.70;;;12.00;99.90;;;;;;6739785;88;20207;-74
2021/01/21 03:45:27;;;;;;;2.70;0.60;;;12.00;99.90;;;;;;6747733;88;20196;-74
2021/01/21 03:55:27;;;;;;;1.15;0.45;;;12.00;99.90;;;;;;6755697;87;20201;-77
2021/01/21 04:05:28;;;;;;;4.18;0.75;;;12.20;99.90;;;;;;6752161;88;20195;-75
2021/01/21 04:15:28;;;;;;;1.87;0.43;;;12.10;99.90;;;;;;6738699;88;20643;-74
2021/01/21 04:25:29;;;;;;;1.70;0.50;;;12.20;99.90;;;;;;6753438;88;20193;-74
2021/01/21 04:35:29;;;;;;;3.30;0.70;;;12.10;99.90;;;;;;6750886;88;20205;-76
2021/01/21 04:45:30;;;;;;;2.12;0.40;;;12.00;99.90;;;;;;6749037;88;20218;-76
2021/01/21 04:55:36;;;;;;;0.98;0.40;;;11.90;99.90;;;;;;6752989;88;20180;-75
2021/01/21 05:05:36;;;;;;;1.77;0.40;;;11.90;99.90;;;;;;6751109;88;20310;-74
2021/01/21 05:15:37;;;;;;;1.58;0.52;;;11.90;99.90;;;;;;6743390;88;20196;-75
2021/01/21 05:25:38;;;;;;;1.98;0.43;;;11.80;99.90;;;;;;6747696;88;20254;-74
2021/01/21 05:35:40;;;;;;;0.90;0.40;;;11.70;99.90;;;;;;6747088;88;20268;-77
2021/01/21 05:45:45;;;;;;;0.60;0.30;;;11.70;99.90;;;;;;6756023;88;20611;-75
2021/01/21 05:55:46;;;;;;;1.48;0.40;;;11.80;99.90;;;;;;6749946;88;20228;-75
2021/01/21 06:05:50;;;;;;;2.00;0.60;;;11.80;99.90;;;;;;6761595;88;20218;-76
2021/01/21 06:15:55;;;;;;;2.80;0.40;;;11.60;99.90;;;;;;6759698;88;20189;-77
2021/01/21 06:25:57;;;;;;;0.37;0.10;;;11.40;99.90;;;;;;6760304;88;20441;-77
2021/01/21 06:36:03;;;;;;;4.18;0.40;;;8.10;99.90;;;;;;6748597;88;20325;-76
2021/01/21 06:46:04;;;;;;;2.33;0.50;;;6.50;99.90;;;;;;6749864;88;20607;-77
2021/01/21 06:56:05;;;;;;;2.62;0.50;;;6.00;99.90;;;;;;6754445;87;20222;-77
2021/01/21 07:06:05;;;;;;;2.05;0.52;;;5.90;99.90;;;;;;6752761;88;20211;-76
2021/01/21 07:16:06;;;;;;;0.90;0.10;;;5.90;99.90;;;;;;6755914;88;20193;-77
2021/01/21 07:26:31;;;;;;;0.77;0.20;;;6.00;99.90;;;;;;6749288;88;20274;-78
2021/01/21 07:36:31;;;;;;;1.08;0.20;;;6.20;99.90;;;;;;6752068;88;20169;-77
2021/01/21 07:46:32;;;;;;;0.43;0.10;;;6.30;99.90;;;;;;6756569;88;20736;-77
2021/01/21 07:56:33;;;;;;;0.50;0.20;;;6.20;99.90;;;;;;6752346;88;20672;-78
2021/01/21 08:06:33;;;;;;;0.20;0.10;;;6.20;99.90;;;;;;6756992;88;20213;-77
2021/01/21 08:16:34;;;;;;;1.10;0.28;;;6.10;99.90;;;;;;6749662;88;20228;-77
2021/01/21 08:26:42;;;;;;;1.25;0.28;;;6.10;99.90;;;;;;6755063;88;20181;-78
2021/01/21 08:36:44;;;;;;;1.87;0.30;;;6.10;99.90;;;;;;6747629;88;20210;-78
2021/01/21 08:47:00;;;;;;;1.92;0.30;;;6.10;99.90;;;;;;6749876;88;20177;-77
2021/01/21 09:08:08;;;;;;;1.85;0.30;;;6.10;99.90;;;;;;6765814;88;20846;-77
2021/01/21 09:18:09;;;;;;;1.87;0.57;;;6.20;99.90;;;;;;6762373;88;20201;-77
2021/01/21 09:28:11;;;;;;;1.87;0.30;;;6.00;99.90;;;;;;6766881;88;20209;-77
2021/01/21 09:38:11;;;;;;;2.20;0.30;;;6.30;99.90;;;;;;6764995;88;20189;-77
2021/01/21 09:48:12;;;;;;;1.30;0.30;;;7.00;99.90;;;;;;6760463;88;20225;-76
2021/01/21 09:58:13;;;;;;;1.92;0.30;;;7.60;99.90;;;;;;6762135;88;20605;-77
2021/01/21 10:08:14;;;;;;;3.30;0.43;;;8.00;99.90;;;;;;6758922;88;20180;-77
2021/01/21 10:18:15;;;;;;;1.45;0.20;;;8.10;99.90;;;;;;6761086;88;20216;-78
2021/01/21 10:28:15;;;;;;;2.87;0.47;;;7.90;99.90;;;;;;6755298;88;20244;-75
2021/01/21 10:38:16;;;;;;;3.03;0.40;;;8.70;99.90;;;;;;6748186;88;20669;-75
2021/01/21 10:48:16;;;;;;;3.28;0.30;;;8.50;99.90;;;;;;6746550;88;20266;-75
2021/01/21 10:58:17;;;;;;;2.00;0.30;;;8.80;99.90;;;;;;6743284;88;20744;-74
2021/01/21 11:08:18;;;;;;;1.25;0.30;;;9.10;99.90;;;;;;6742556;88;20192;-74
2021/01/21 11:18:21;;;;;;;2.80;0.40;;;9.00;99.90;;;;;;6748672;88;20207;-74
2021/01/21 11:28:21;;;;;;;2.05;0.40;;;8.70;99.90;;;;;;6742401;88;20307;-74
2021/01/21 11:38:22;;;;;;;3.03;0.32;;;8.80;99.90;;;;;;6746500;88;20270;-73
2021/01/21 11:48:23;;;;;;;4.55;0.50;;;8.80;99.90;;;;;;6753182;88;21014;-74
2021/01/21 11:58:23;;;;;;;3.67;0.50;;;8.80;99.90;;;;;;6746116;88;20241;-74
2021/01/21 12:08:23;;;;;;;3.37;0.60;;;9.40;99.90;;;;;;6744176;88;20207;-74
2021/01/21 12:18:24;;;;;;;3.30;0.65;;;9.60;99.90;;;;;;6741019;88;20214;-74
2021/01/21 12:28:24;;;;;;;2.55;0.32;;;9.50;99.90;;;;;;6736693;88;20282;-74
2021/01/21 12:38:25;;;;;;;3.45;0.47;;;9.50;99.90;;;;;;6739629;88;20197;-73
2021/01/21 12:48:26;;;;;;;2.05;0.50;;;10.00;99.90;;;;;;6743023;88;20189;-74
2021/01/21 12:58:26;;;;;;;3.10;0.70;;;10.70;99.90;;;;;;6744112;88;20192;-74
2021/01/21 13:08:27;;;;;;;3.58;0.40;;;10.50;99.90;;;;;;6743056;88;20698;-74
2021/01/21 13:18:28;;;;;;;2.62;0.30;;;10.80;99.90;;;;;;6745876;88;20191;-74
2021/01/21 13:28:28;;;;;;;1.45;0.30;;;10.40;99.90;;;;;;6740511;88;20714;-74
2021/01/21 13:38:31;;;;;;;2.87;0.50;;;10.10;99.90;;;;;;6747473;88;20232;-74
2021/01/21 13:48:32;;;;;;;1.85;0.50;;;9.70;99.90;;;;;;6745911;88;20298;-75
2021/01/21 13:58:32;;;;;;;1.92;0.40;;;9.70;99.90;;;;;;6750979;87;20205;-74
2021/01/21 14:08:33;;;;;;;3.40;0.40;;;9.60;99.90;;;;;;6742069;88;20196;-74
2021/01/21 14:18:33;;;;;;;2.65;0.40;;;9.50;99.90;;;;;;6742678;88;20212;-74
2021/01/21 14:28:34;;;;;;;2.67;0.88;;;9.50;99.90;;;;;;6739968;88;20219;-74
2021/01/21 14:38:34;;;;;;;3.42;0.45;;;9.30;99.90;;;;;;6746547;88;20189;-74
2021/01/21 14:48:35;;;;;;;2.05;0.40;;;9.10;99.90;;;;;;6748702;88;20232;-75
2021/01/21 14:58:35;;;;;;;3.55;0.60;;;9.20;99.90;;;;;;6752424;76;20218;-75
2021/01/21 15:08:36;;;;;;;3.67;0.40;;;9.20;99.90;;;;;;6751959;88;20272;-74
2021/01/21 15:18:36;;;;;;;3.60;0.50;;;9.10;99.90;;;;;;6747886;88;20504;-76
2021/01/21 15:28:37;;;;;;;3.13;0.47;;;9.00;99.90;;;;;;6742433;88;20255;-76
2021/01/21 15:38:38;;;;;;;4.45;0.52;;;9.00;99.90;;;;;;6743856;88;20643;-76
2021/01/21 15:48:38;;;;;;;6.10;0.40;;;9.00;99.90;;;;;;6746393;88;20168;-76
2021/01/21 15:58:39;;;;;;;5.18;0.65;;;8.90;99.90;;;;;;6746390;88;20212;-76
2021/01/21 16:08:39;;;;;;;4.43;0.73;;;8.90;99.90;;;;;;6742494;88;20264;-74
2021/01/21 16:18:40;;;;;;;5.07;0.77;;;8.90;99.90;;;;;;6746047;87;20526;-74
2021/01/21 16:28:41;;;;;;;7.07;0.70;;;8.80;99.90;;;;;;6743742;87;20365;-75
2021/01/21 16:38:42;;;;;;;3.95;0.75;;;8.80;99.90;;;;;;6756871;88;20713;-76
2021/01/21 16:48:43;;;;;;;7.80;0.82;;;8.70;99.90;;;;;;6752463;88;20337;-77
2021/01/21 16:58:44;;;;;;;4.12;0.68;;;8.60;99.90;;;;;;6757594;88;20189;-77
2021/01/21 17:08:45;;;;;;;3.83;1.00;;;8.80;99.90;;;;;;6749791;88;20199;-74
2021/01/21 17:18:45;;;;;;;4.53;0.70;;;8.70;99.90;;;;;;6747101;88;20231;-77
2021/01/21 17:28:46;;;;;;;8.17;1.20;;;8.70;99.90;;;;;;6749443;88;20184;-75
2021/01/21 17:38:46;;;;;;;7.50;1.23;;;8.50;99.90;;;;;;6742752;88;20618;-76
2021/01/21 17:48:47;;;;;;;6.78;0.95;;;8.50;99.90;;;;;;6744833;88;20202;-76
2021/01/21 17:58:47;;;;;;;6.75;0.80;;;8.40;99.90;;;;;;6744685;88;20235;-76
2021/01/21 18:08:48;;;;;;;5.70;1.10;;;8.50;99.90;;;;;;6742584;88;20244;-76
2021/01/21 18:18:49;;;;;;;4.37;0.98;;;8.40;99.90;;;;;;6748937;88;20262;-77
2021/01/21 18:28:49;;;;;;;7.72;1.27;;;8.50;99.90;;;;;;6746594;88;20349;-77
2021/01/21 18:38:50;;;;;;;5.28;1.40;;;8.40;99.90;;;;;;6747671;88;20334;-77
2021/01/21 18:48:50;;;;;;;3.95;0.80;;;8.40;99.90;;;;;;6752246;88;20196;-77
2021/01/21 18:58:51;;;;;;;3.55;0.70;;;8.30;99.90;;;;;;6741337;88;20232;-77
2021/01/21 19:08:51;;;;;;;5.30;0.90;;;8.10;99.90;;;;;;6747942;88;20750;-77
2021/01/21 19:18:52;;;;;;;4.13;1.00;;;8.00;99.90;;;;;;6752971;88;20498;-78
2021/01/21 19:28:53;;;;;;;4.05;1.00;;;8.00;99.90;;;;;;6749632;88;21240;-76
2021/01/21 19:38:53;;;;;;;2.62;0.80;;;7.90;99.90;;;;;;6753100;88;20188;-77
2021/01/21 19:48:54;;;;;;;4.95;1.10;;;7.90;99.90;;;;;;6748315;88;20200;-78
2021/01/21 19:58:54;;;;;;;3.85;0.90;;;7.90;99.90;;;;;;6750207;88;20194;-78
2021/01/21 20:08:55;;;;;;;2.85;1.08;;;7.90;99.90;;;;;;6749902;88;20559;-75
2021/01/21 20:18:56;;;;;;;2.37;1.10;;;8.00;99.90;;;;;;6752426;88;20255;-77
2021/01/21 20:28:56;;;;;;;2.87;1.10;;;8.10;99.90;;;;;;6743306;88;20218;-77
2021/01/21 20:38:57;;;;;;;3.67;0.90;;;8.10;99.90;;;;;;6748390;88;20488;-78
2021/01/21 20:48:58;;;;;;;2.80;1.13;;;8.30;99.90;;;;;;6747237;88;20815;-77
2021/01/21 20:58:58;;;;;;;1.10;0.60;;;8.40;99.90;;;;;;6752425;88;20537;-78
2021/01/21 21:08:59;;;;;;;2.15;0.82;;;8.80;99.90;;;;;;6753419;88;20266;-76
2021/01/21 21:18:59;;;;;;;1.75;0.70;;;9.10;99.90;;;;;;6744938;88;20224;-78
2021/01/21 21:29:00;;;;;;;1.05;0.45;;;9.30;99.90;;;;;;6752376;88;20202;-78
2021/01/21 21:39:01;;;;;;;0.90;0.37;;;9.90;99.90;;;;;;6756528;88;20359;-78
2021/01/21 21:49:01;;;;;;;2.78;0.35;;;10.20;99.90;;;;;;6747521;88;20193;-77
2021/01/21 21:59:02;;;;;;;1.60;0.40;;;10.60;99.90;;;;;;6749287;88;20216;-77
2021/01/21 22:09:03;;;;;;;1.33;0.43;;;10.80;99.90;;;;;;6754140;88;20192;-78
2021/01/21 22:19:03;;;;;;;0.47;0.20;;;10.90;99.90;;;;;;6754540;88;20251;-77
2021/01/21 22:29:04;;;;;;;0.90;0.30;;;10.80;99.90;;;;;;6762006;88;20196;-77
2021/01/21 22:39:06;;;;;;;1.35;0.30;;;10.70;99.90;;;;;;6748167;88;20320;-78
2021/01/21 22:49:06;;;;;;;0.77;0.30;;;10.50;99.90;;;;;;6748001;88;20185;-77
2021/01/21 22:59:07;;;;;;;1.75;0.50;;;10.70;99.90;;;;;;6743590;88;20211;-78
2021/01/21 23:09:07;;;;;;;2.08;0.70;;;10.40;99.90;;;;;;6747059;88;20182;-77
2021/01/21 23:19:08;;;;;;;1.65;0.50;;;10.50;99.90;;;;;;6752949;88;20239;-77
2021/01/21 23:29:09;;;;;;;2.55;0.50;;;10.60;99.90;;;;;;6751692;88;20916;-78
2021/01/21 23:39:09;;;;;;;3.08;0.60;;;10.70;99.90;;;;;;6751605;88;20699;-77
2021/01/21 23:49:10;;;;;;;1.77;0.40;;;10.80;99.90;;;;;;6753498;88;20228;-78
2021/01/21 23:59:10;;;;;;;3.72;0.65;;;10.70;99.90;;;;;;6748223;88;20230;-78
